sensor_id;sensor_type;location;lat;lon;timestamp;pressure;altitude;pressure_sealevel;temperature;humidity
19831;BME280;10076;52.008;4.708;2023-04-23T00:01:51;100746.63;;;10.69;100.00
19831;BME280;10076;52.008;4.708;2023-04-23T00:04:17;100745.03;;;10.67;100.00
19831;BME280;10076;52.008;4.708;2023-04-23T00:06:45;100742.66;;;10.64;100.00
19831;BME280;10076;52.008;4.708;2023-04-23T00:09:14;100738.50;;;10.72;100.00
19831;BME280;10076;52.008;4.708;2023-04-23T00:11:41;100742.97;;;10.59;100.00
19831;BME280;10076;52.008;4.708;2023-04-23T00:14:07;100735.44;;;10.66;100.00
19831;BME280;10076;52.008;4.708;2023-04-23T00:16:32;100739.75;;;10.67;100.00
19831;BME280;10076;52.008;4.708;2023-04-23T00:18:58;100738.25;;;10.75;100.00
19831;BME280;10076;52.008;4.708;2023-04-23T00:21:23;100737.56;;;10.61;100.00
19831;BME280;10076;52.008;4.708;2023-04-23T00:23:49;100727.44;;;10.55;100.00
19831;BME280;10076;52.008;4.708;2023-04-23T00:26:14;100733.59;;;10.55;100.00
19831;BME280;10076;52.008;4.708;2023-04-23T00:28:39;100739.13;;;10.63;100.00
19831;BME280;10076;52.008;4.708;2023-04-23T00:31:05;100734.03;;;10.73;100.00
19831;BME280;10076;52.008;4.708;2023-04-23T00:33:31;100729.81;;;10.70;100.00
19831;BME280;10076;52.008;4.708;2023-04-23T00:35:56;100720.84;;;10.73;100.00
19831;BME280;10076;52.008;4.708;2023-04-23T00:38:22;100716.63;;;10.70;100.00
19831;BME280;10076;52.008;4.708;2023-04-23T00:40:47;100718.88;;;10.87;100.00
19831;BME280;10076;52.008;4.708;2023-04-23T00:43:13;100713.09;;;11.05;100.00
19831;BME280;10076;52.008;4.708;2023-04-23T00:45:39;100706.44;;;11.00;100.00
19831;BME280;10076;52.008;4.708;2023-04-23T00:48:04;100708.19;;;11.12;100.00
19831;BME280;10076;52.008;4.708;2023-04-23T00:50:31;100697.28;;;10.93;100.00
19831;BME280;10076;52.008;4.708;2023-04-23T00:52:56;100703.75;;;10.89;100.00
19831;BME280;10076;52.008;4.708;2023-04-23T00:55:21;100693.69;;;10.94;100.00
19831;BME280;10076;52.008;4.708;2023-04-23T00:57:47;100688.38;;;10.83;100.00
19831;BME280;10076;52.008;4.708;2023-04-23T01:00:13;100697.69;;;10.76;100.00
19831;BME280;10076;52.008;4.708;2023-04-23T01:02:39;100693.94;;;10.91;100.00
19831;BME280;10076;52.008;4.708;2023-04-23T01:05:07;100690.75;;;10.86;100.00
19831;BME280;10076;52.008;4.708;2023-04-23T01:07:34;100691.38;;;10.90;100.00
19831;BME280;10076;52.008;4.708;2023-04-23T01:09:59;100685.69;;;11.06;100.00
19831;BME280;10076;52.008;4.708;2023-04-23T01:12:25;100692.34;;;11.23;100.00
19831;BME280;10076;52.008;4.708;2023-04-23T01:14:50;100680.00;;;11.23;100.00
19831;BME280;10076;52.008;4.708;2023-04-23T01:17:16;100687.69;;;11.26;100.00
19831;BME280;10076;52.008;4.708;2023-04-23T01:19:41;100686.13;;;11.24;100.00
19831;BME280;10076;52.008;4.708;2023-04-23T01:22:16;100678.81;;;11.27;100.00
19831;BME280;10076;52.008;4.708;2023-04-23T01:24:42;100679.84;;;11.14;100.00
19831;BME280;10076;52.008;4.708;2023-04-23T01:27:08;100679.72;;;11.15;100.00
19831;BME280;10076;52.008;4.708;2023-04-23T01:29:34;100674.63;;;11.01;100.00
19831;BME280;10076;52.008;4.708;2023-04-23T01:32:01;100680.41;;;11.06;100.00
19831;BME280;10076;52.008;4.708;2023-04-23T01:34:28;100675.69;;;10.99;100.00
19831;BME280;10076;52.008;4.708;2023-04-23T01:36:54;100668.34;;;10.92;100.00
19831;BME280;10076;52.008;4.708;2023-04-23T01:39:21;100674.25;;;10.95;100.00
19831;BME280;10076;52.008;4.708;2023-04-23T01:41:47;100671.81;;;11.15;100.00
19831;BME280;10076;52.008;4.708;2023-04-23T01:44:12;100662.31;;;11.13;100.00
19831;BME280;10076;52.008;4.708;2023-04-23T01:46:38;100660.97;;;11.07;100.00
19831;BME280;10076;52.008;4.708;2023-04-23T01:49:03;100666.72;;;11.12;100.00
19831;BME280;10076;52.008;4.708;2023-04-23T01:51:29;100664.00;;;11.14;100.00
19831;BME280;10076;52.008;4.708;2023-04-23T01:53:54;100662.78;;;11.07;100.00
19831;BME280;10076;52.008;4.708;2023-04-23T01:56:24;100661.22;;;11.15;100.00
19831;BME280;10076;52.008;4.708;2023-04-23T01:58:53;100664.16;;;11.23;100.00
19831;BME280;10076;52.008;4.708;2023-04-23T02:01:18;100659.78;;;11.11;100.00
19831;BME280;10076;52.008;4.708;2023-04-23T02:03:44;100660.19;;;11.40;100.00
19831;BME280;10076;52.008;4.708;2023-04-23T02:06:10;100666.09;;;11.43;100.00
19831;BME280;10076;52.008;4.708;2023-04-23T02:08:36;100664.53;;;11.41;100.00
19831;BME280;10076;52.008;4.708;2023-04-23T02:11:02;100655.84;;;11.28;100.00
19831;BME280;10076;52.008;4.708;2023-04-23T02:13:27;100652.97;;;11.31;100.00
19831;BME280;10076;52.008;4.708;2023-04-23T02:15:53;100659.72;;;11.35;100.00
19831;BME280;10076;52.008;4.708;2023-04-23T02:18:18;100656.78;;;11.16;100.00
19831;BME280;10076;52.008;4.708;2023-04-23T02:20:43;100654.13;;;11.16;100.00
19831;BME280;10076;52.008;4.708;2023-04-23T02:23:09;100650.28;;;11.09;100.00
19831;BME280;10076;52.008;4.708;2023-04-23T02:25:35;100649.59;;;11.18;100.00
19831;BME280;10076;52.008;4.708;2023-04-23T02:28:03;100650.22;;;11.32;100.00
19831;BME280;10076;52.008;4.708;2023-04-23T02:30:31;100647.91;;;11.28;100.00
19831;BME280;10076;52.008;4.708;2023-04-23T02:32:56;100640.59;;;11.20;100.00
19831;BME280;10076;52.008;4.708;2023-04-23T02:35:21;100640.00;;;11.28;100.00
19831;BME280;10076;52.008;4.708;2023-04-23T02:37:48;100637.84;;;11.33;100.00
19831;BME280;10076;52.008;4.708;2023-04-23T02:40:13;100632.78;;;11.30;100.00
19831;BME280;10076;52.008;4.708;2023-04-23T02:42:38;100648.41;;;11.33;100.00
19831;BME280;10076;52.008;4.708;2023-04-23T02:45:04;100647.78;;;11.29;100.00
19831;BME280;10076;52.008;4.708;2023-04-23T02:47:30;100651.78;;;11.46;100.00
19831;BME280;10076;52.008;4.708;2023-04-23T02:49:55;100648.31;;;11.45;100.00
19831;BME280;10076;52.008;4.708;2023-04-23T02:52:21;100651.09;;;11.44;100.00
19831;BME280;10076;52.008;4.708;2023-04-23T02:54:46;100648.38;;;11.56;100.00
19831;BME280;10076;52.008;4.708;2023-04-23T02:57:12;100649.16;;;11.46;100.00
19831;BME280;10076;52.008;4.708;2023-04-23T02:59:39;100647.78;;;11.29;100.00
19831;BME280;10076;52.008;4.708;2023-04-23T03:02:05;100649.34;;;11.21;100.00
19831;BME280;10076;52.008;4.708;2023-04-23T03:04:30;100645.53;;;11.25;100.00
19831;BME280;10076;52.008;4.708;2023-04-23T03:06:55;100639.91;;;11.40;100.00
19831;BME280;10076;52.008;4.708;2023-04-23T03:09:21;100633.22;;;11.58;100.00
19831;BME280;10076;52.008;4.708;2023-04-23T03:11:46;100638.84;;;11.43;100.00
19831;BME280;10076;52.008;4.708;2023-04-23T03:14:12;100638.56;;;11.46;100.00
19831;BME280;10076;52.008;4.708;2023-04-23T03:16:37;100635.94;;;11.35;100.00
19831;BME280;10076;52.008;4.708;2023-04-23T03:19:02;100633.16;;;11.36;100.00
19831;BME280;10076;52.008;4.708;2023-04-23T03:21:28;100632.31;;;11.25;100.00
19831;BME280;10076;52.008;4.708;2023-04-23T03:23:53;100632.06;;;11.39;100.00
19831;BME280;10076;52.008;4.708;2023-04-23T03:26:19;100628.44;;;11.18;100.00
19831;BME280;10076;52.008;4.708;2023-04-23T03:28:44;100634.56;;;11.18;100.00
19831;BME280;10076;52.008;4.708;2023-04-23T03:31:10;100633.00;;;11.27;100.00
19831;BME280;10076;52.008;4.708;2023-04-23T03:33:35;100624.59;;;11.22;100.00
19831;BME280;10076;52.008;4.708;2023-04-23T03:36:01;100622.22;;;11.30;100.00
19831;BME280;10076;52.008;4.708;2023-04-23T03:38:26;100625.34;;;11.35;100.00
19831;BME280;10076;52.008;4.708;2023-04-23T03:40:51;100618.38;;;11.34;100.00
19831;BME280;10076;52.008;4.708;2023-04-23T03:43:17;100618.50;;;11.43;100.00
19831;BME280;10076;52.008;4.708;2023-04-23T03:45:42;100617.75;;;11.30;100.00
19831;BME280;10076;52.008;4.708;2023-04-23T03:48:07;100620.31;;;11.43;100.00
19831;BME280;10076;52.008;4.708;2023-04-23T03:50:32;100623.06;;;11.41;100.00
19831;BME280;10076;52.008;4.708;2023-04-23T03:53:03;100626.09;;;11.37;100.00
19831;BME280;10076;52.008;4.708;2023-04-23T03:55:28;100616.47;;;11.36;100.00
19831;BME280;10076;52.008;4.708;2023-04-23T03:57:53;100621.16;;;11.43;100.00
19831;BME280;10076;52.008;4.708;2023-04-23T04:00:19;100621.88;;;11.45;100.00
19831;BME280;10076;52.008;4.708;2023-04-23T04:02:44;100627.09;;;11.58;100.00
19831;BME280;10076;52.008;4.708;2023-04-23T04:05:10;100618.19;;;11.59;100.00
19831;BME280;10076;52.008;4.708;2023-04-23T04:07:35;100621.63;;;11.37;100.00
19831;BME280;10076;52.008;4.708;2023-04-23T04:10:01;100622.22;;;11.19;100.00
19831;BME280;10076;52.008;4.708;2023-04-23T04:12:27;100628.47;;;11.29;100.00
19831;BME280;10076;52.008;4.708;2023-04-23T04:14:53;100628.00;;;11.46;100.00
19831;BME280;10076;52.008;4.708;2023-04-23T04:17:18;100630.38;;;11.27;100.00
19831;BME280;10076;52.008;4.708;2023-04-23T04:19:43;100632.06;;;11.28;100.00
19831;BME280;10076;52.008;4.708;2023-04-23T04:22:09;100629.66;;;11.25;100.00
19831;BME280;10076;52.008;4.708;2023-04-23T04:24:34;100635.44;;;11.30;100.00
19831;BME280;10076;52.008;4.708;2023-04-23T04:27:00;100636.34;;;11.07;100.00
19831;BME280;10076;52.008;4.708;2023-04-23T04:29:26;100621.31;;;11.07;100.00
19831;BME280;10076;52.008;4.708;2023-04-23T04:31:53;100619.06;;;11.14;100.00
19831;BME280;10076;52.008;4.708;2023-04-23T04:34:18;100618.09;;;11.15;100.00
19831;BME280;10076;52.008;4.708;2023-04-23T04:36:44;100620.38;;;11.19;100.00
19831;BME280;10076;52.008;4.708;2023-04-23T04:39:10;100620.03;;;11.13;100.00
19831;BME280;10076;52.008;4.708;2023-04-23T04:41:36;100612.16;;;11.00;100.00
19831;BME280;10076;52.008;4.708;2023-04-23T04:44:02;100621.13;;;11.21;100.00
19831;BME280;10076;52.008;4.708;2023-04-23T04:46:27;100618.66;;;10.97;100.00
19831;BME280;10076;52.008;4.708;2023-04-23T04:48:55;100619.75;;;11.05;100.00
19831;BME280;10076;52.008;4.708;2023-04-23T04:51:21;100624.13;;;11.17;100.00
19831;BME280;10076;52.008;4.708;2023-04-23T04:53:46;100616.66;;;11.11;100.00
19831;BME280;10076;52.008;4.708;2023-04-23T04:56:12;100622.97;;;10.87;100.00
19831;BME280;10076;52.008;4.708;2023-04-23T04:58:37;100620.00;;;11.02;100.00
19831;BME280;10076;52.008;4.708;2023-04-23T05:01:02;100628.69;;;10.81;100.00
19831;BME280;10076;52.008;4.708;2023-04-23T05:03:29;100622.97;;;10.87;100.00
19831;BME280;10076;52.008;4.708;2023-04-23T05:05:54;100630.63;;;11.24;100.00
19831;BME280;10076;52.008;4.708;2023-04-23T05:08:20;100625.03;;;11.05;100.00
19831;BME280;10076;52.008;4.708;2023-04-23T05:10:46;100630.59;;;11.13;100.00
19831;BME280;10076;52.008;4.708;2023-04-23T05:13:11;100628.91;;;11.12;100.00
19831;BME280;10076;52.008;4.708;2023-04-23T05:15:36;100630.97;;;11.19;100.00
19831;BME280;10076;52.008;4.708;2023-04-23T05:18:03;100641.22;;;11.00;100.00
19831;BME280;10076;52.008;4.708;2023-04-23T05:20:28;100627.47;;;11.08;100.00
19831;BME280;10076;52.008;4.708;2023-04-23T05:22:54;100630.00;;;11.09;100.00
19831;BME280;10076;52.008;4.708;2023-04-23T05:25:19;100627.72;;;11.16;100.00
19831;BME280;10076;52.008;4.708;2023-04-23T05:27:44;100631.59;;;11.45;100.00
19831;BME280;10076;52.008;4.708;2023-04-23T05:30:10;100625.22;;;11.47;100.00
19831;BME280;10076;52.008;4.708;2023-04-23T05:32:36;100631.91;;;11.53;100.00
19831;BME280;10076;52.008;4.708;2023-04-23T05:35:01;100624.66;;;11.44;100.00
19831;BME280;10076;52.008;4.708;2023-04-23T05:37:28;100628.47;;;11.40;100.00
19831;BME280;10076;52.008;4.708;2023-04-23T05:39:53;100627.44;;;11.53;100.00
19831;BME280;10076;52.008;4.708;2023-04-23T05:42:20;100624.69;;;11.55;100.00
19831;BME280;10076;52.008;4.708;2023-04-23T05:44:45;100629.00;;;11.56;100.00
19831;BME280;10076;52.008;4.708;2023-04-23T05:47:12;100624.56;;;11.67;100.00
19831;BME280;10076;52.008;4.708;2023-04-23T05:49:37;100633.59;;;11.65;100.00
19831;BME280;10076;52.008;4.708;2023-04-23T05:52:03;100630.47;;;11.60;100.00
19831;BME280;10076;52.008;4.708;2023-04-23T05:54:28;100631.06;;;11.63;100.00
19831;BME280;10076;52.008;4.708;2023-04-23T05:56:53;100616.75;;;11.66;100.00
19831;BME280;10076;52.008;4.708;2023-04-23T05:59:19;100615.41;;;11.93;100.00
19831;BME280;10076;52.008;4.708;2023-04-23T06:01:45;100618.06;;;11.82;100.00
19831;BME280;10076;52.008;4.708;2023-04-23T06:04:12;100626.97;;;12.03;100.00
19831;BME280;10076;52.008;4.708;2023-04-23T06:06:37;100616.13;;;11.95;100.00
19831;BME280;10076;52.008;4.708;2023-04-23T06:09:03;100620.34;;;11.97;100.00
19831;BME280;10076;52.008;4.708;2023-04-23T06:11:28;100620.72;;;11.82;100.00
19831;BME280;10076;52.008;4.708;2023-04-23T06:13:56;100622.00;;;12.09;100.00
19831;BME280;10076;52.008;4.708;2023-04-23T06:16:21;100617.41;;;12.33;100.00
19831;BME280;10076;52.008;4.708;2023-04-23T06:18:48;100617.75;;;12.29;100.00
19831;BME280;10076;52.008;4.708;2023-04-23T06:21:13;100604.84;;;12.46;100.00
19831;BME280;10076;52.008;4.708;2023-04-23T06:23:39;100608.91;;;12.50;100.00
19831;BME280;10076;52.008;4.708;2023-04-23T06:26:04;100597.59;;;12.48;100.00
19831;BME280;10076;52.008;4.708;2023-04-23T06:28:30;100606.13;;;12.51;100.00
19831;BME280;10076;52.008;4.708;2023-04-23T06:30:55;100595.91;;;12.58;100.00
19831;BME280;10076;52.008;4.708;2023-04-23T06:33:21;100602.19;;;12.77;100.00
19831;BME280;10076;52.008;4.708;2023-04-23T06:35:48;100600.50;;;12.76;100.00
19831;BME280;10076;52.008;4.708;2023-04-23T06:38:14;100597.19;;;12.95;100.00
19831;BME280;10076;52.008;4.708;2023-04-23T06:40:39;100583.84;;;12.85;100.00
19831;BME280;10076;52.008;4.708;2023-04-23T06:43:05;100593.13;;;13.11;100.00
19831;BME280;10076;52.008;4.708;2023-04-23T06:45:32;100593.56;;;13.16;100.00
19831;BME280;10076;52.008;4.708;2023-04-23T06:47:58;100588.00;;;13.19;100.00
19831;BME280;10076;52.008;4.708;2023-04-23T06:50:23;100579.13;;;13.29;100.00
19831;BME280;10076;52.008;4.708;2023-04-23T06:52:48;100595.94;;;13.39;100.00
19831;BME280;10076;52.008;4.708;2023-04-23T06:55:14;100583.72;;;13.48;100.00
19831;BME280;10076;52.008;4.708;2023-04-23T06:57:39;100590.56;;;13.50;100.00
19831;BME280;10076;52.008;4.708;2023-04-23T07:00:05;100586.47;;;13.76;100.00
19831;BME280;10076;52.008;4.708;2023-04-23T07:02:35;100583.44;;;13.90;100.00
19831;BME280;10076;52.008;4.708;2023-04-23T07:05:00;100586.13;;;13.99;100.00
19831;BME280;10076;52.008;4.708;2023-04-23T07:07:26;100576.59;;;13.87;100.00
19831;BME280;10076;52.008;4.708;2023-04-23T07:09:51;100581.66;;;14.00;100.00
19831;BME280;10076;52.008;4.708;2023-04-23T07:12:17;100585.28;;;13.99;100.00
19831;BME280;10076;52.008;4.708;2023-04-23T07:14:42;100576.66;;;14.06;100.00
19831;BME280;10076;52.008;4.708;2023-04-23T07:17:07;100582.09;;;14.05;100.00
19831;BME280;10076;52.008;4.708;2023-04-23T07:19:33;100573.09;;;14.26;100.00
19831;BME280;10076;52.008;4.708;2023-04-23T07:21:58;100566.91;;;14.16;100.00
19831;BME280;10076;52.008;4.708;2023-04-23T07:24:24;100571.44;;;14.44;100.00
19831;BME280;10076;52.008;4.708;2023-04-23T07:26:50;100560.81;;;14.53;100.00
19831;BME280;10076;52.008;4.708;2023-04-23T07:29:15;100567.81;;;14.54;100.00
19831;BME280;10076;52.008;4.708;2023-04-23T07:31:41;100570.16;;;14.67;100.00
19831;BME280;10076;52.008;4.708;2023-04-23T07:34:06;100565.56;;;14.69;100.00
19831;BME280;10076;52.008;4.708;2023-04-23T07:36:32;100556.72;;;14.87;100.00
19831;BME280;10076;52.008;4.708;2023-04-23T07:38:57;100559.25;;;14.79;100.00
19831;BME280;10076;52.008;4.708;2023-04-23T07:41:23;100563.16;;;14.94;100.00
19831;BME280;10076;52.008;4.708;2023-04-23T07:43:49;100559.53;;;14.86;100.00
19831;BME280;10076;52.008;4.708;2023-04-23T07:46:14;100563.88;;;14.87;100.00
19831;BME280;10076;52.008;4.708;2023-04-23T07:48:40;100559.06;;;15.00;100.00
19831;BME280;10076;52.008;4.708;2023-04-23T07:51:07;100559.19;;;15.17;100.00
19831;BME280;10076;52.008;4.708;2023-04-23T07:53:33;100554.63;;;15.00;100.00
19831;BME280;10076;52.008;4.708;2023-04-23T07:55:59;100563.81;;;15.06;100.00
19831;BME280;10076;52.008;4.708;2023-04-23T07:58:24;100566.38;;;15.07;100.00
19831;BME280;10076;52.008;4.708;2023-04-23T08:00:50;100563.97;;;15.14;100.00
19831;BME280;10076;52.008;4.708;2023-04-23T08:03:15;100549.81;;;15.22;100.00
19831;BME280;10076;52.008;4.708;2023-04-23T08:05:41;100555.25;;;15.21;100.00
19831;BME280;10076;52.008;4.708;2023-04-23T08:08:06;100546.59;;;15.28;100.00
19831;BME280;10076;52.008;4.708;2023-04-23T08:10:33;100541.22;;;15.38;100.00
19831;BME280;10076;52.008;4.708;2023-04-23T08:12:58;100539.44;;;15.38;100.00
19831;BME280;10076;52.008;4.708;2023-04-23T08:15:23;100533.81;;;15.41;100.00
19831;BME280;10076;52.008;4.708;2023-04-23T08:17:49;100542.16;;;15.56;100.00
19831;BME280;10076;52.008;4.708;2023-04-23T08:20:14;100542.84;;;15.58;100.00
19831;BME280;10076;52.008;4.708;2023-04-23T08:22:40;100534.84;;;15.85;100.00
19831;BME280;10076;52.008;4.708;2023-04-23T08:25:05;100540.09;;;15.77;100.00
19831;BME280;10076;52.008;4.708;2023-04-23T08:27:31;100539.31;;;15.93;100.00
19831;BME280;10076;52.008;4.708;2023-04-23T08:29:56;100539.16;;;15.95;100.00
19831;BME280;10076;52.008;4.708;2023-04-23T08:32:21;100542.97;;;15.92;100.00
19831;BME280;10076;52.008;4.708;2023-04-23T08:34:47;100538.19;;;16.13;100.00
19831;BME280;10076;52.008;4.708;2023-04-23T08:37:12;100530.78;;;16.34;100.00
19831;BME280;10076;52.008;4.708;2023-04-23T08:39:37;100528.13;;;16.52;100.00
19831;BME280;10076;52.008;4.708;2023-04-23T08:42:09;100540.38;;;16.62;100.00
19831;BME280;10076;52.008;4.708;2023-04-23T08:44:37;100553.09;;;16.68;100.00
19831;BME280;10076;52.008;4.708;2023-04-23T08:47:06;100535.78;;;16.72;100.00
19831;BME280;10076;52.008;4.708;2023-04-23T08:49:33;100535.13;;;16.53;100.00
19831;BME280;10076;52.008;4.708;2023-04-23T08:52:09;100536.13;;;16.69;100.00
19831;BME280;10076;52.008;4.708;2023-04-23T08:54:40;100537.91;;;16.86;100.00
19831;BME280;10076;52.008;4.708;2023-04-23T08:57:09;100532.28;;;17.14;100.00
19831;BME280;10076;52.008;4.708;2023-04-23T08:59:35;100537.78;;;17.30;100.00
19831;BME280;10076;52.008;4.708;2023-04-23T09:02:01;100547.50;;;17.80;100.00
19831;BME280;10076;52.008;4.708;2023-04-23T09:04:32;100542.13;;;18.13;100.00
19831;BME280;10076;52.008;4.708;2023-04-23T09:06:58;100540.22;;;18.39;100.00
19831;BME280;10076;52.008;4.708;2023-04-23T09:09:27;100542.72;;;18.25;100.00
19831;BME280;10076;52.008;4.708;2023-04-23T09:11:54;100547.41;;;18.47;100.00
19831;BME280;10076;52.008;4.708;2023-04-23T09:14:22;100542.41;;;18.91;100.00
19831;BME280;10076;52.008;4.708;2023-04-23T09:16:49;100542.94;;;18.95;100.00
19831;BME280;10076;52.008;4.708;2023-04-23T09:19:16;100533.38;;;19.24;100.00
19831;BME280;10076;52.008;4.708;2023-04-23T09:21:43;100534.91;;;19.19;100.00
19831;BME280;10076;52.008;4.708;2023-04-23T09:24:10;100528.38;;;18.97;100.00
19831;BME280;10076;52.008;4.708;2023-04-23T09:26:43;100534.69;;;19.44;100.00
19831;BME280;10076;52.008;4.708;2023-04-23T09:29:13;100528.63;;;19.50;100.00
19831;BME280;10076;52.008;4.708;2023-04-23T09:31:42;100526.16;;;19.87;100.00
19831;BME280;10076;52.008;4.708;2023-04-23T09:34:07;100521.84;;;20.16;100.00
19831;BME280;10076;52.008;4.708;2023-04-23T09:36:33;100531.69;;;20.68;100.00
19831;BME280;10076;52.008;4.708;2023-04-23T09:39:01;100533.63;;;20.82;100.00
19831;BME280;10076;52.008;4.708;2023-04-23T09:41:27;100526.81;;;21.31;100.00
19831;BME280;10076;52.008;4.708;2023-04-23T09:43:53;100525.72;;;21.54;100.00
19831;BME280;10076;52.008;4.708;2023-04-23T09:46:34;100522.47;;;21.87;100.00
19831;BME280;10076;52.008;4.708;2023-04-23T09:49:02;100524.63;;;22.13;100.00
19831;BME280;10076;52.008;4.708;2023-04-23T09:51:31;100527.66;;;21.60;100.00
19831;BME280;10076;52.008;4.708;2023-04-23T09:53:57;100528.88;;;22.22;100.00
19831;BME280;10076;52.008;4.708;2023-04-23T09:56:23;100517.72;;;23.01;100.00
19831;BME280;10076;52.008;4.708;2023-04-23T09:58:49;100515.28;;;23.34;100.00
19831;BME280;10076;52.008;4.708;2023-04-23T10:01:14;100513.91;;;23.44;100.00
19831;BME280;10076;52.008;4.708;2023-04-23T10:03:43;100516.31;;;22.85;100.00
19831;BME280;10076;52.008;4.708;2023-04-23T10:06:15;100512.16;;;22.40;100.00
19831;BME280;10076;52.008;4.708;2023-04-23T10:08:40;100506.25;;;22.51;100.00
19831;BME280;10076;52.008;4.708;2023-04-23T10:11:06;100511.50;;;22.80;100.00
19831;BME280;10076;52.008;4.708;2023-04-23T10:13:34;100499.59;;;22.68;100.00
19831;BME280;10076;52.008;4.708;2023-04-23T10:16:01;100512.19;;;22.89;100.00
19831;BME280;10076;52.008;4.708;2023-04-23T10:18:29;100508.63;;;23.02;100.00
19831;BME280;10076;52.008;4.708;2023-04-23T10:20:57;100502.72;;;22.30;100.00
19831;BME280;10076;52.008;4.708;2023-04-23T10:23:23;100500.59;;;21.76;100.00
19831;BME280;10076;52.008;4.708;2023-04-23T10:25:52;100488.41;;;22.09;100.00
19831;BME280;10076;52.008;4.708;2023-04-23T10:28:18;100490.97;;;22.52;100.00
19831;BME280;10076;52.008;4.708;2023-04-23T10:30:46;100484.16;;;22.56;100.00
19831;BME280;10076;52.008;4.708;2023-04-23T10:33:12;100494.53;;;22.80;100.00
19831;BME280;10076;52.008;4.708;2023-04-23T10:35:38;100482.97;;;21.73;100.00
19831;BME280;10076;52.008;4.708;2023-04-23T10:38:04;100475.38;;;21.34;100.00
19831;BME280;10076;52.008;4.708;2023-04-23T10:40:32;100468.16;;;21.49;100.00
19831;BME280;10076;52.008;4.708;2023-04-23T10:42:59;100469.34;;;21.32;100.00
19831;BME280;10076;52.008;4.708;2023-04-23T10:45:29;100466.22;;;21.14;100.00
19831;BME280;10076;52.008;4.708;2023-04-23T10:47:54;100458.78;;;21.16;100.00
19831;BME280;10076;52.008;4.708;2023-04-23T10:50:22;100452.06;;;21.34;100.00
19831;BME280;10076;52.008;4.708;2023-04-23T10:52:48;100443.56;;;20.80;100.00
19831;BME280;10076;52.008;4.708;2023-04-23T10:55:22;100455.34;;;20.56;100.00
19831;BME280;10076;52.008;4.708;2023-04-23T10:58:05;100444.28;;;20.51;100.00
19831;BME280;10076;52.008;4.708;2023-04-23T11:03:29;100438.97;;;21.17;100.00
19831;BME280;10076;52.008;4.708;2023-04-23T11:05:59;100445.94;;;21.26;100.00
19831;BME280;10076;52.008;4.708;2023-04-23T11:08:24;100433.59;;;21.17;100.00
19831;BME280;10076;52.008;4.708;2023-04-23T11:10:53;100428.03;;;21.04;100.00
19831;BME280;10076;52.008;4.708;2023-04-23T11:13:27;100425.63;;;20.58;100.00
19831;BME280;10076;52.008;4.708;2023-04-23T11:16:13;100429.44;;;20.26;100.00
19831;BME280;10076;52.008;4.708;2023-04-23T11:18:58;100412.69;;;20.24;100.00
19831;BME280;10076;52.008;4.708;2023-04-23T11:21:55;100415.81;;;20.06;100.00
19831;BME280;10076;52.008;4.708;2023-04-23T11:24:26;100419.09;;;19.93;100.00
19831;BME280;10076;52.008;4.708;2023-04-23T11:26:52;100410.16;;;19.70;100.00
19831;BME280;10076;52.008;4.708;2023-04-23T11:29:21;100409.19;;;19.63;100.00
19831;BME280;10076;52.008;4.708;2023-04-23T11:31:48;100410.97;;;19.79;100.00
19831;BME280;10076;52.008;4.708;2023-04-23T11:34:13;100399.44;;;20.01;100.00
19831;BME280;10076;52.008;4.708;2023-04-23T11:36:39;100391.06;;;20.04;100.00
19831;BME280;10076;52.008;4.708;2023-04-23T11:39:06;100395.53;;;20.33;100.00
19831;BME280;10076;52.008;4.708;2023-04-23T11:41:35;100385.59;;;20.56;100.00
19831;BME280;10076;52.008;4.708;2023-04-23T11:44:00;100382.81;;;20.64;100.00
19831;BME280;10076;52.008;4.708;2023-04-23T11:46:25;100385.69;;;21.49;100.00
19831;BME280;10076;52.008;4.708;2023-04-23T11:48:50;100376.25;;;21.53;100.00
19831;BME280;10076;52.008;4.708;2023-04-23T11:51:16;100363.31;;;21.77;100.00
19831;BME280;10076;52.008;4.708;2023-04-23T11:53:48;100375.75;;;22.20;100.00
19831;BME280;10076;52.008;4.708;2023-04-23T11:56:17;100363.03;;;22.83;100.00
19831;BME280;10076;52.008;4.708;2023-04-23T11:58:42;100364.59;;;22.71;100.00
19831;BME280;10076;52.008;4.708;2023-04-23T12:01:09;100351.47;;;22.14;100.00
19831;BME280;10076;52.008;4.708;2023-04-23T12:03:36;100353.53;;;21.55;100.00
19831;BME280;10076;52.008;4.708;2023-04-23T12:06:02;100354.13;;;21.37;100.00
19831;BME280;10076;52.008;4.708;2023-04-23T12:08:31;100350.56;;;21.15;100.00
19831;BME280;10076;52.008;4.708;2023-04-23T12:11:00;100349.22;;;21.40;100.00
19831;BME280;10076;52.008;4.708;2023-04-23T12:13:30;100343.22;;;21.94;100.00
19831;BME280;10076;52.008;4.708;2023-04-23T12:15:59;100342.44;;;23.50;100.00
19831;BME280;10076;52.008;4.708;2023-04-23T12:18:38;100340.09;;;23.80;100.00
19831;BME280;10076;52.008;4.708;2023-04-23T12:21:12;100343.81;;;23.26;100.00
19831;BME280;10076;52.008;4.708;2023-04-23T12:23:41;100332.63;;;22.34;100.00
19831;BME280;10076;52.008;4.708;2023-04-23T12:26:14;100323.47;;;22.08;100.00
19831;BME280;10076;52.008;4.708;2023-04-23T12:28:48;100326.31;;;21.58;100.00
19831;BME280;10076;52.008;4.708;2023-04-23T12:31:21;100321.06;;;21.36;100.00
19831;BME280;10076;52.008;4.708;2023-04-23T12:33:55;100312.78;;;21.38;100.00
19831;BME280;10076;52.008;4.708;2023-04-23T12:36:25;100315.97;;;21.27;100.00
19831;BME280;10076;52.008;4.708;2023-04-23T12:38:51;100320.47;;;21.20;100.00
19831;BME280;10076;52.008;4.708;2023-04-23T12:41:16;100307.88;;;21.06;100.00